Great Horkesley, United Kingdom
Current Conditions -  °F | °C
As of 11:50 AM on Sunday 23 Nov 2014 (Local Time) from EGUW Reporting Station
Moderate Rain Moderate Rain  
Wind Chill: 40°   Ceiling: 2600
Heat Index: 46°   Visibility: 4mi
Dew Point: 46°   Wind: 14mph
Humidity: 100%   Direction: 320°NW
Pressure: 29.97"   Gusts: NA
Location:  51.94°N, 0.88°E
Report Text: EGUW 231150Z AUTO 32012KT 6000 RA SCT003/// BKN026/// 08/08 Q1015
Loading
Personal Weather Stations






























Interactive Weather Map New forecast layout! Learn more

10-Day Weather Forecast

Advertisements
Track Severe Weather on mobile